Time;durP1;ratioP1;P1;durP2;ratioP2;P2;SDS_P1;SDS_P2;PMS_P1;PMS_P2;Temp;Humidity;BMP_temperature;BMP_pressure;BME280_temperature;BME280_humidity;BME280_pressure;Samples;Min_cycle;Max_cycle;Signal;HPM_P1;HPM_P2
2020/12/27 00:02:06;;;;;;;11.15;7.70;;;;;;;2.99;84.41;99947.41;5050699;28;20040;-66
2020/12/27 00:04:32;;;;;;;10.70;7.05;;;;;;;3.01;84.25;99942.84;5051421;28;20043;-66
2020/12/27 00:07:02;;;;;;;12.38;7.97;;;;;;;2.95;84.78;99934.50;5050358;28;20041;-66
2020/12/27 00:09:28;;;;;;;9.57;6.35;;;;;;;3.01;84.25;99935.75;5050635;28;20593;-66
2020/12/27 00:11:53;;;;;;;11.07;7.00;;;;;;;3.00;84.54;99939.38;5051316;28;20079;-66
2020/12/27 00:14:18;;;;;;;9.13;6.47;;;;;;;3.05;84.03;99925.78;5050591;28;20056;-66
2020/12/27 00:16:44;;;;;;;9.80;6.83;;;;;;;3.03;84.21;99912.72;5051105;28;20095;-66
2020/12/27 00:19:09;;;;;;;10.40;6.97;;;;;;;3.08;83.59;99904.41;5050433;28;20040;-66
2020/12/27 00:21:34;;;;;;;12.17;7.53;;;;;;;3.11;83.49;99898.84;5051432;28;20056;-66
2020/12/27 00:24:00;;;;;;;9.63;6.93;;;;;;;3.06;83.39;99885.25;5051484;28;20033;-66
2020/12/27 00:26:25;;;;;;;8.93;6.40;;;;;;;3.11;83.24;99878.63;5051087;28;20033;-66
2020/12/27 00:28:50;;;;;;;8.67;6.37;;;;;;;3.13;83.42;99881.09;5051353;28;20149;-66
2020/12/27 00:31:17;;;;;;;9.07;6.40;;;;;;;3.05;83.62;99870.41;5051287;28;20037;-66
2020/12/27 00:33:42;;;;;;;11.40;6.50;;;;;;;3.08;83.64;99873.59;5050228;28;20079;-66
2020/12/27 00:36:08;;;;;;;8.30;6.10;;;;;;;3.12;83.07;99853.06;5033470;28;20073;-66
2020/12/27 00:38:33;;;;;;;7.60;5.97;;;;;;;3.10;83.36;99862.91;5051252;28;20072;-66
2020/12/27 00:40:58;;;;;;;8.97;5.73;;;;;;;3.10;83.19;99855.84;5051296;28;20075;-66
2020/12/27 00:43:24;;;;;;;9.67;6.23;;;;;;;3.12;82.99;99837.25;5051201;28;20061;-66
2020/12/27 00:45:49;;;;;;;9.67;6.00;;;;;;;3.13;82.80;99839.72;5050054;28;20415;-66
2020/12/27 00:48:14;;;;;;;8.27;5.87;;;;;;;3.10;83.02;99833.91;5050088;28;20098;-66
2020/12/27 00:50:41;;;;;;;8.83;5.73;;;;;;;3.09;83.01;99819.03;5050180;28;20044;-66
2020/12/27 00:53:06;;;;;;;7.88;5.13;;;;;;;3.08;82.65;99799.75;5050991;28;20029;-67
2020/12/27 00:55:32;;;;;;;7.53;4.50;;;;;;;3.11;82.52;99796.00;5050022;28;20339;-67
2020/12/27 00:57:58;;;;;;;6.88;4.88;;;;;;;3.15;82.20;99813.22;5033344;28;20067;-67
2020/12/27 01:00:23;;;;;;;6.80;4.97;;;;;;;3.12;82.74;99805.59;5050009;28;20071;-67
2020/12/27 01:02:50;;;;;;;7.95;4.68;;;;;;;3.13;82.46;99821.25;5049623;28;20524;-67
2020/12/27 01:05:34;;;;;;;7.40;4.45;;;;;;;3.09;82.68;99795.31;5050918;28;20067;-67
2020/12/27 01:08:01;;;;;;;12.88;4.78;;;;;;;3.03;83.23;99780.88;5049845;28;20044;-67
2020/12/27 01:10:27;;;;;;;5.43;4.55;;;;;;;3.02;83.67;99783.63;5049912;28;20021;-68
2020/12/27 01:12:52;;;;;;;6.00;4.63;;;;;;;3.01;84.27;99771.44;5049889;28;20040;-68
2020/12/27 01:15:19;;;;;;;7.43;4.22;;;;;;;2.96;84.28;99754.22;5049628;28;20033;-68
2020/12/27 01:18:00;;;;;;;5.88;3.33;;;;;;;2.98;84.25;99740.09;5049753;28;20033;-68
2020/12/27 01:20:27;;;;;;;7.22;4.43;;;;;;;2.94;84.49;99745.59;5050084;28;20060;-68
2020/12/27 01:22:53;;;;;;;;;;;;;;;2.91;84.65;99730.06;5052284;28;20041;-68
2020/12/27 01:25:28;;;;;;;6.45;3.80;;;;;;;2.88;84.50;99743.53;5038356;28;19960;-68
2020/12/27 01:27:53;;;;;;;5.10;4.23;;;;;;;2.91;84.65;99719.53;5053456;28;20056;-68
2020/12/27 01:30:19;;;;;;;5.45;3.95;;;;;;;2.90;84.31;99746.03;5053673;28;20498;-68
2020/12/27 01:32:52;;;;;;;4.47;3.78;;;;;;;3.00;83.61;99719.66;5053476;28;20037;-68
2020/12/27 01:35:17;;;;;;;5.70;3.50;;;;;;;2.99;83.67;99728.53;5054390;28;20059;-68
2020/12/27 01:37:43;;;;;;;4.47;3.42;;;;;;;2.95;83.88;99715.66;5036737;28;20135;-68
2020/12/27 01:40:08;;;;;;;4.50;3.63;;;;;;;2.94;83.96;99732.44;5053272;28;20072;-68
2020/12/27 01:42:35;;;;;;;5.63;4.20;;;;;;;2.86;84.79;99724.38;5053448;28;20343;-68
2020/12/27 01:45:02;;;;;;;6.80;4.93;;;;;;;2.82;85.61;99701.06;5053334;28;20039;-69
2020/12/27 01:47:54;;;;;;;4.53;3.33;;;;;;;2.74;85.65;99689.41;5054034;28;20037;-68
2020/12/27 01:50:21;;;;;;;6.10;4.07;;;;;;;2.77;85.95;99675.13;5053264;28;20470;-68
2020/12/27 01:52:48;;;;;;;5.43;3.70;;;;;;;2.72;86.59;99674.72;5036666;28;20539;-68
2020/12/27 01:55:21;;;;;;;4.90;3.60;;;;;;;2.53;87.09;99646.56;5037412;28;20083;-68
2020/12/27 01:57:53;;;;;;;4.70;3.38;;;;;;;2.40;87.17;99672.31;5053013;28;20819;-68
2020/12/27 02:00:20;;;;;;;8.30;3.92;;;;;;;2.31;87.39;99692.41;5036627;28;20462;-68
2020/12/27 02:03:06;;;;;;;8.13;3.95;;;;;;;2.22;87.39;99661.59;5052963;28;20488;-69
2020/12/27 02:05:32;;;;;;;6.15;3.92;;;;;;;2.13;87.92;99662.41;5052816;28;20386;-68
2020/12/27 02:07:57;;;;;;;5.77;4.33;;;;;;;2.10;87.92;99642.44;5052832;28;20068;-68
2020/12/27 02:10:36;;;;;;;5.88;4.30;;;;;;;2.07;88.30;99619.03;5053788;28;20040;-68
2020/12/27 02:13:02;;;;;;;6.38;4.85;;;;;;;1.97;88.66;99616.38;5052896;28;20035;-68
2020/12/27 02:15:27;;;;;;;7.90;4.65;;;;;;;1.96;88.72;99617.31;5035981;28;20493;-68
2020/12/27 02:18:25;;;;;;;4.97;3.95;;;;;;;1.99;88.60;99598.66;5053644;28;20044;-68
2020/12/27 02:20:51;;;;;;;7.78;4.78;;;;;;;1.97;88.35;99583.97;5052702;28;20174;-68
2020/12/27 02:23:21;;;;;;;6.55;4.00;;;;;;;1.94;88.28;99586.84;5052636;28;20033;-68
2020/12/27 02:25:55;;;;;;;6.20;4.85;;;;;;;1.96;88.19;99567.31;5036909;28;20473;-68
2020/12/27 02:28:29;;;;;;;5.05;3.55;;;;;;;1.95;87.69;99573.56;5052573;28;20048;-68
2020/12/27 02:30:57;;;;;;;4.75;4.15;;;;;;;1.97;88.09;99571.63;5052564;28;20157;-68
2020/12/27 02:33:22;;;;;;;5.93;3.95;;;;;;;1.97;87.84;99565.53;5034814;28;20455;-68
2020/12/27 02:35:49;;;;;;;7.90;4.43;;;;;;;1.96;87.67;99553.31;5051715;28;20048;-68
2020/12/27 02:38:19;;;;;;;6.10;4.03;;;;;;;1.99;87.28;99551.25;5036468;28;20489;-68
2020/12/27 02:40:44;;;;;;;5.77;3.17;;;;;;;1.99;87.14;99548.63;5052172;28;20044;-68
2020/12/27 02:43:19;;;;;;;7.65;4.07;;;;;;;2.01;87.15;99543.22;5052248;28;20048;-68
2020/12/27 02:45:47;;;;;;;8.02;4.28;;;;;;;1.99;87.26;99537.25;5051900;28;20129;-68
2020/12/27 02:48:41;;;;;;;7.07;4.10;;;;;;;2.01;87.04;99520.34;5053132;28;20048;-68
2020/12/27 02:51:19;;;;;;;6.75;4.63;;;;;;;2.06;86.86;99518.16;5051969;28;20482;-68
2020/12/27 02:53:48;;;;;;;7.38;3.92;;;;;;;2.03;86.57;99501.78;5052132;28;20132;-68
2020/12/27 02:56:15;;;;;;;6.03;4.10;;;;;;;2.02;86.54;99497.50;5051684;28;20041;-68
2020/12/27 02:58:41;;;;;;;6.60;3.97;;;;;;;2.05;86.50;99471.72;5052022;28;20037;-68
2020/12/27 03:01:07;;;;;;;6.80;4.33;;;;;;;2.06;86.50;99476.03;5051941;28;20033;-68
2020/12/27 03:03:55;;;;;;;5.82;3.85;;;;;;;2.06;85.87;99486.56;5050040;28;20028;-68
2020/12/27 03:06:24;;;;;;;6.28;3.60;;;;;;;2.11;85.98;99455.38;5051538;28;20041;-68
2020/12/27 03:08:55;;;;;;;5.30;3.78;;;;;;;2.11;85.79;99446.66;5051839;28;20025;-68
2020/12/27 03:11:40;;;;;;;7.35;4.10;;;;;;;2.16;85.72;99412.00;5037701;28;20120;-68
2020/12/27 03:14:08;;;;;;;6.25;5.20;;;;;;;2.20;85.34;99421.25;5051450;28;20042;-68
2020/12/27 03:16:35;;;;;;;4.63;3.47;;;;;;;2.22;85.14;99429.84;5051275;28;20047;-68
2020/12/27 03:19:33;;;;;;;5.20;3.80;;;;;;;2.24;84.90;99420.00;5051558;28;20028;-68
2020/12/27 03:22:18;;;;;;;4.60;3.42;;;;;;;2.26;85.00;99408.34;5050989;28;20056;-68
2020/12/27 03:24:54;;;;;;;5.50;3.17;;;;;;;2.32;84.42;99406.97;5051589;28;20064;-68
2020/12/27 03:27:19;;;;;;;5.17;2.73;;;;;;;2.32;84.39;99392.00;5052081;28;20737;-68
2020/12/27 03:29:44;;;;;;;4.03;2.90;;;;;;;2.36;84.17;99389.06;5051490;28;20024;-68
2020/12/27 03:32:13;;;;;;;5.22;2.90;;;;;;;2.37;84.16;99388.94;5035270;28;20106;-67
2020/12/27 03:34:39;;;;;;;4.53;3.15;;;;;;;2.40;84.00;99377.28;5051114;28;20033;-67
2020/12/27 03:37:05;;;;;;;4.05;3.22;;;;;;;2.44;83.86;99345.25;5034447;28;20063;-68
2020/12/27 03:39:59;;;;;;;4.57;3.17;;;;;;;2.49;83.44;99350.91;5052103;28;20139;-67
2020/12/27 03:42:39;;;;;;;4.68;3.40;;;;;;;2.57;82.93;99341.44;5051249;28;20498;-70
2020/12/27 03:45:07;;;;;;;5.30;2.83;;;;;;;2.53;83.00;99330.38;5050644;28;20048;-70
2020/12/27 03:47:54;;;;;;;3.42;2.33;;;;;;;2.57;83.01;99313.28;5052021;28;20043;-70
2020/12/27 03:50:39;;;;;;;3.58;1.90;;;;;;;2.57;82.47;99320.38;5051052;28;20087;-70
2020/12/27 03:53:05;;;;;;;5.63;1.88;;;;;;;2.70;82.01;99318.22;5034407;28;20036;-70
2020/12/27 03:55:50;;;;;;;3.72;2.10;;;;;;;2.80;81.03;99303.19;5050592;28;20036;-70
2020/12/27 03:58:34;;;;;;;2.65;2.10;;;;;;;2.80;80.82;99303.19;5051038;28;20106;-70
2020/12/27 04:01:07;;;;;;;2.58;1.95;;;;;;;2.80;80.93;99268.91;5050920;28;20052;-70
2020/12/27 04:03:33;;;;;;;3.40;2.20;;;;;;;2.82;80.83;99282.78;5034204;28;20171;-70
2020/12/27 04:06:06;;;;;;;3.45;2.45;;;;;;;2.84;80.73;99282.63;5050517;28;20110;-70
2020/12/27 04:08:34;;;;;;;3.97;2.50;;;;;;;2.84;80.47;99280.81;5050635;28;20115;-70
2020/12/27 04:11:00;;;;;;;3.90;2.00;;;;;;;2.82;80.33;99247.69;5050673;28;20116;-70
2020/12/27 04:13:28;;;;;;;2.20;1.88;;;;;;;2.89;79.85;99257.47;5033942;28;20039;-70
2020/12/27 04:16:03;;;;;;;2.95;1.95;;;;;;;2.87;79.86;99277.88;5050363;28;20041;-70
2020/12/27 04:18:31;;;;;;;4.25;2.08;;;;;;;2.89;79.74;99256.66;5050324;28;20029;-70
2020/12/27 04:21:19;;;;;;;2.80;1.88;;;;;;;2.89;79.89;99246.94;5050525;28;20032;-71
2020/12/27 04:23:56;;;;;;;3.70;1.77;;;;;;;2.88;79.76;99240.00;5050440;28;20444;-70
2020/12/27 04:26:22;;;;;;;;;;;;;;;2.84;79.71;99207.00;5050525;28;20099;-70
2020/12/27 04:28:51;;;;;;;4.03;1.88;;;;;;;2.82;79.12;99226.59;5050302;28;20026;-70
2020/12/27 04:31:20;;;;;;;2.45;1.50;;;;;;;2.85;78.89;99223.66;5050469;28;20040;-70
2020/12/27 04:33:52;;;;;;;4.63;1.23;;;;;;;2.75;78.99;99195.56;5050186;28;20040;-70
2020/12/27 04:36:37;;;;;;;3.15;1.50;;;;;;;2.77;79.01;99197.22;5036171;28;20061;-70
2020/12/27 04:39:05;;;;;;;2.65;2.28;;;;;;;2.75;78.34;99192.94;5050291;28;20060;-70
2020/12/27 04:41:37;;;;;;;3.15;1.77;;;;;;;2.69;78.71;99187.41;5050195;28;20025;-71
2020/12/27 04:44:08;;;;;;;3.33;2.28;;;;;;;2.68;78.12;99183.13;5034399;28;20083;-70
2020/12/27 04:46:34;;;;;;;1.70;1.55;;;;;;;2.63;77.90;99170.41;5049960;28;20549;-70
2020/12/27 04:49:02;;;;;;;1.95;1.45;;;;;;;2.61;78.07;99180.28;5033835;28;20094;-70
2020/12/27 04:51:36;;;;;;;6.72;2.17;;;;;;;2.59;78.20;99155.06;5050170;28;20029;-70
2020/12/27 04:54:28;;;;;;;3.15;1.95;;;;;;;2.58;78.03;99175.31;5050805;28;20041;-70
2020/12/27 04:57:17;;;;;;;3.03;2.10;;;;;;;2.59;78.14;99157.69;5050947;28;20474;-70
2020/12/27 04:59:46;;;;;;;3.08;1.92;;;;;;;2.57;77.75;99149.91;5054191;28;20036;-70
2020/12/27 05:02:17;;;;;;;3.00;2.00;;;;;;;2.54;77.63;99148.41;5038417;28;20029;-70
2020/12/27 05:04:48;;;;;;;3.08;2.10;;;;;;;2.55;77.53;99122.91;5054323;28;20048;-70
2020/12/27 05:07:20;;;;;;;4.47;1.65;;;;;;;2.52;77.68;99131.94;5054004;28;20060;-70
2020/12/27 05:10:11;;;;;;;4.65;1.77;;;;;;;2.49;77.54;99119.06;5054087;28;20080;-70
2020/12/27 05:12:43;;;;;;;3.30;2.30;;;;;;;2.44;77.79;99099.44;5053990;28;20028;-71
2020/12/27 05:15:08;;;;;;;4.03;2.25;;;;;;;2.37;77.80;99088.66;5053871;28;20052;-70
2020/12/27 05:17:37;;;;;;;3.05;2.22;;;;;;;2.32;77.81;99089.13;5037494;28;20037;-70
2020/12/27 05:20:12;;;;;;;3.30;2.20;;;;;;;2.31;77.66;99110.31;5037253;28;20033;-70
2020/12/27 05:22:39;;;;;;;4.15;2.63;;;;;;;2.25;77.48;99080.16;5053916;28;20051;-71
2020/12/27 05:25:14;;;;;;;3.35;2.25;;;;;;;2.21;77.83;99085.88;5053565;28;20411;-71
2020/12/27 05:28:04;;;;;;;4.53;2.30;;;;;;;2.20;77.61;99078.94;5054687;28;20202;-71
2020/12/27 05:30:43;;;;;;;3.45;2.35;;;;;;;2.19;77.62;99083.38;5053903;28;20052;-70
2020/12/27 05:33:27;;;;;;;5.07;1.90;;;;;;;2.17;77.39;99076.63;5054456;28;20067;-70
2020/12/27 05:36:11;;;;;;;6.28;2.65;;;;;;;2.12;77.70;99074.44;5053062;28;20040;-70
2020/12/27 05:38:45;;;;;;;5.20;2.33;;;;;;;2.13;77.33;99080.50;5053522;28;20558;-70
2020/12/27 05:41:36;;;;;;;4.15;2.47;;;;;;;2.10;77.31;99064.03;5053365;28;20107;-71
2020/12/27 05:44:15;;;;;;;5.20;2.80;;;;;;;2.07;77.55;99055.63;5053434;28;20036;-71
2020/12/27 05:46:43;;;;;;;3.85;2.55;;;;;;;2.04;77.41;99064.66;5036409;28;20051;-70
2020/12/27 05:49:10;;;;;;;5.03;2.45;;;;;;;2.03;77.26;99055.09;5053327;28;20373;-71
2020/12/27 05:51:48;;;;;;;5.15;2.47;;;;;;;2.04;77.34;99053.31;5053119;28;20037;-71
2020/12/27 05:54:33;;;;;;;4.60;3.00;;;;;;;2.05;76.78;99029.44;5053163;28;20374;-70
2020/12/27 05:57:04;;;;;;;4.68;2.83;;;;;;;2.01;77.03;99020.19;5052832;28;20036;-71
2020/12/27 05:59:33;;;;;;;5.05;3.35;;;;;;;2.02;76.67;99027.13;5036780;28;20039;-70
2020/12/27 06:02:04;;;;;;;5.72;2.55;;;;;;;2.01;76.71;99019.34;5037278;28;20079;-70
2020/12/27 06:04:49;;;;;;;5.38;2.83;;;;;;;1.96;76.92;99006.66;5052985;28;20036;-71
2020/12/27 06:07:34;;;;;;;5.15;2.88;;;;;;;1.96;77.23;99014.53;5052798;28;20523;-70
2020/12/27 06:10:18;;;;;;;5.90;2.78;;;;;;;1.94;76.97;99000.69;5052743;28;20040;-71
2020/12/27 06:12:57;;;;;;;5.35;2.78;;;;;;;1.95;76.81;99017.34;5052815;28;20033;-70
2020/12/27 06:15:30;;;;;;;5.90;3.45;;;;;;;1.88;76.95;99011.84;5052753;28;20040;-71
2020/12/27 06:18:16;;;;;;;6.68;3.75;;;;;;;1.87;76.46;98982.06;5054066;28;20044;-71
2020/12/27 06:21:06;;;;;;;5.75;2.50;;;;;;;1.89;76.49;98964.31;5052795;28;20043;-70
2020/12/27 06:23:35;;;;;;;6.22;3.28;;;;;;;1.82;76.77;98959.78;5052477;28;20048;-71
2020/12/27 06:26:04;;;;;;;5.88;3.33;;;;;;;1.80;76.50;98938.06;5052282;28;20458;-71
2020/12/27 06:28:30;;;;;;;5.65;3.13;;;;;;;1.82;76.52;98947.47;5052499;28;20052;-71
2020/12/27 06:31:16;;;;;;;4.43;2.67;;;;;;;1.81;76.67;98937.94;5053684;28;20062;-70
2020/12/27 06:33:50;;;;;;;;;;;;;;;1.80;76.34;98952.06;5052735;28;20508;-71
2020/12/27 06:36:35;;;;;;;6.20;3.40;;;;;;;1.77;76.38;98938.38;5052255;28;20022;-71
2020/12/27 06:39:23;;;;;;;4.18;2.95;;;;;;;1.77;76.21;98944.47;5052357;28;20044;-70
2020/12/27 06:42:18;;;;;;;5.55;3.22;;;;;;;1.78;76.51;98966.31;5035767;28;20394;-71
2020/12/27 06:45:06;;;;;;;6.15;3.35;;;;;;;1.75;76.40;98959.56;5053039;28;20533;-71
2020/12/27 06:47:58;;;;;;;4.85;3.72;;;;;;;1.80;75.99;98956.47;5051773;28;20049;-71
2020/12/27 06:50:46;;;;;;;4.88;3.20;;;;;;;1.79;76.05;98954.84;5052020;28;20044;-71
2020/12/27 06:53:42;;;;;;;3.88;2.88;;;;;;;1.80;75.70;98967.88;5035613;28;20477;-71
2020/12/27 06:56:39;;;;;;;3.92;3.00;;;;;;;1.79;75.93;98958.28;5052566;28;20665;-71
2020/12/27 06:59:24;;;;;;;4.45;3.13;;;;;;;1.79;75.79;98958.28;5053013;28;20056;-70
2020/12/27 07:02:04;;;;;;;8.27;3.20;;;;;;;1.82;75.30;98957.16;5052961;28;20398;-71
2020/12/27 07:04:36;;;;;;;5.85;3.33;;;;;;;1.86;74.98;98955.91;5052728;28;20051;-70
2020/12/27 07:07:01;;;;;;;6.80;3.40;;;;;;;1.81;75.57;98955.53;5052514;28;20097;-71
2020/12/27 07:09:27;;;;;;;6.20;3.63;;;;;;;1.86;75.30;98945.38;5052595;28;20131;-70
2020/12/27 07:12:06;;;;;;;4.50;2.88;;;;;;;1.83;75.47;98924.63;5051695;28;20032;-70
2020/12/27 07:14:39;;;;;;;6.78;3.85;;;;;;;1.84;75.17;98892.88;5051773;28;20033;-71
2020/12/27 07:17:06;;;;;;;5.13;3.40;;;;;;;1.84;75.25;98919.19;5052446;28;20438;-71
2020/12/27 07:19:34;;;;;;;5.75;2.97;;;;;;;1.82;75.26;98909.81;5051991;28;20061;-71
2020/12/27 07:22:10;;;;;;;5.75;2.45;;;;;;;1.81;75.01;98882.66;5052262;28;20048;-71
2020/12/27 07:24:38;;;;;;;6.95;3.67;;;;;;;1.75;75.17;98871.91;5052593;28;20034;-71
2020/12/27 07:27:05;;;;;;;4.75;2.53;;;;;;;1.82;75.01;98880.84;5051119;28;20064;-71
2020/12/27 07:29:32;;;;;;;3.90;2.45;;;;;;;1.82;74.94;98872.97;5034816;28;20037;-71
2020/12/27 07:32:00;;;;;;;4.70;2.50;;;;;;;1.82;74.69;98836.13;5051333;28;20374;-70
2020/12/27 07:34:28;;;;;;;4.88;2.42;;;;;;;1.82;74.85;98851.91;5051128;28;20033;-71
2020/12/27 07:37:05;;;;;;;5.50;2.22;;;;;;;1.75;75.39;98841.16;5050866;28;20037;-71
2020/12/27 07:39:57;;;;;;;4.05;2.38;;;;;;;1.80;75.08;98832.81;5051290;28;20037;-71
2020/12/27 07:42:23;;;;;;;3.90;2.38;;;;;;;1.81;74.93;98831.84;5051084;28;20064;-71
2020/12/27 07:44:49;;;;;;;3.92;2.40;;;;;;;1.80;75.12;98823.13;5052031;28;20056;-71
2020/12/27 07:47:14;;;;;;;3.35;2.17;;;;;;;1.83;75.03;98835.16;5050842;28;20101;-71
2020/12/27 07:49:39;;;;;;;2.93;2.23;;;;;;;1.83;74.79;98795.69;5034548;28;20028;-71
2020/12/27 07:52:05;;;;;;;2.90;2.10;;;;;;;1.87;74.12;98797.00;5051967;28;20033;-71
2020/12/27 07:54:30;;;;;;;3.53;2.27;;;;;;;1.88;74.07;98809.22;5051020;28;20041;-71
2020/12/27 07:56:55;;;;;;;4.53;2.43;;;;;;;1.89;74.20;98803.75;5050696;28;20052;-71
2020/12/27 07:59:21;;;;;;;4.88;1.98;;;;;;;1.89;73.97;98787.16;5051828;28;20032;-71
2020/12/27 08:01:46;;;;;;;2.70;1.87;;;;;;;1.94;73.70;98790.16;5051887;28;20382;-71
2020/12/27 08:04:12;;;;;;;3.27;2.33;;;;;;;1.94;73.78;98779.63;5051700;28;20025;-71
2020/12/27 08:06:40;;;;;;;3.67;1.95;;;;;;;1.98;73.35;98777.53;5051413;28;20036;-71
2020/12/27 08:09:08;;;;;;;3.50;1.70;;;;;;;2.57;72.69;98748.66;5034072;28;20171;-71
2020/12/27 08:11:36;;;;;;;2.80;2.08;;;;;;;2.40;72.38;98761.75;5051410;28;20087;-71
2020/12/27 08:14:03;;;;;;;2.22;1.90;;;;;;;2.07;73.14;98773.94;5050527;28;20045;-70
2020/12/27 08:16:29;;;;;;;3.88;1.73;;;;;;;1.99;73.42;98764.22;5051326;28;20056;-70
2020/12/27 08:19:01;;;;;;;2.00;1.80;;;;;;;2.00;73.70;98747.44;5051429;28;20040;-70
2020/12/27 08:21:26;;;;;;;5.38;1.88;;;;;;;2.00;73.25;98742.16;5051521;28;20479;-71
2020/12/27 08:24:03;;;;;;;2.80;1.70;;;;;;;2.01;72.78;98740.34;5051433;28;20108;-70
2020/12/27 08:26:30;;;;;;;3.47;2.63;;;;;;;2.00;73.45;98736.91;5051062;28;20037;-71
2020/12/27 08:29:24;;;;;;;5.93;1.90;;;;;;;2.01;73.46;98716.66;5033734;28;20425;-71
2020/12/27 08:31:52;;;;;;;4.53;2.13;;;;;;;2.02;73.36;98721.78;5051307;28;20048;-70
2020/12/27 08:34:23;;;;;;;2.75;2.10;;;;;;;2.01;73.33;98714.84;5051169;28;20044;-71
2020/12/27 08:36:53;;;;;;;8.32;3.05;;;;;;;2.01;73.09;98706.13;5050852;28;20151;-71
2020/12/27 08:39:45;;;;;;;8.05;3.50;;;;;;;2.09;73.08;98717.53;5050335;28;20024;-71
2020/12/27 08:42:19;;;;;;;4.50;1.90;;;;;;;2.07;73.10;98695.78;5050802;28;20049;-71
2020/12/27 08:45:04;;;;;;;3.15;1.60;;;;;;;2.08;72.80;98686.09;5049963;28;20079;-71
2020/12/27 08:47:39;;;;;;;4.43;1.80;;;;;;;2.09;72.24;98680.69;5033067;28;20106;-71
2020/12/27 08:50:08;;;;;;;5.07;1.88;;;;;;;2.10;72.66;98661.25;5051021;28;20045;-66
2020/12/27 08:52:33;;;;;;;4.30;1.88;;;;;;;2.07;72.45;98658.94;5033446;28;20919;-66
2020/12/27 08:55:05;;;;;;;2.65;1.98;;;;;;;2.07;72.59;98650.22;5050845;28;20128;-66
2020/12/27 08:57:31;;;;;;;3.47;1.77;;;;;;;2.09;72.39;98662.25;5050721;28;20033;-66
2020/12/27 08:59:58;;;;;;;2.70;1.60;;;;;;;2.10;72.79;98648.09;5050600;28;20051;-66
2020/12/27 09:02:23;;;;;;;4.82;2.15;;;;;;;2.07;72.42;98624.72;5050870;28;20045;-66
2020/12/27 09:05:25;;;;;;;2.70;2.00;;;;;;;2.15;72.71;98647.63;5050658;28;20071;-66
2020/12/27 09:07:50;;;;;;;2.30;1.67;;;;;;;2.13;72.63;98627.69;5049232;28;20391;-66
2020/12/27 09:10:20;;;;;;;2.53;1.57;;;;;;;2.09;73.09;98643.00;5050043;28;20135;-66
2020/12/27 09:13:04;;;;;;;4.95;1.80;;;;;;;2.13;72.87;98639.06;5033147;28;20036;-66
2020/12/27 09:15:32;;;;;;;5.88;1.60;;;;;;;2.13;73.89;98619.81;5032825;28;20048;-66
2020/12/27 09:17:57;;;;;;;5.15;1.58;;;;;;;2.15;73.45;98623.91;5050488;28;20045;-66
2020/12/27 09:20:23;;;;;;;4.77;2.10;;;;;;;2.09;73.95;98625.41;5049579;28;20048;-66
2020/12/27 09:22:49;;;;;;;4.03;1.40;;;;;;;2.07;74.42;98623.91;5049562;28;20080;-66
2020/12/27 09:25:18;;;;;;;5.22;1.70;;;;;;;2.07;74.28;98627.34;5050451;28;20094;-66
2020/12/27 09:27:43;;;;;;;2.65;2.10;;;;;;;2.02;74.71;98608.59;5049425;28;20037;-66
2020/12/27 09:30:13;;;;;;;2.83;1.70;;;;;;;1.94;75.78;98598.03;5050470;28;20365;-66
2020/12/27 09:32:39;;;;;;;6.47;2.03;;;;;;;1.90;76.44;98594.09;5050563;28;20052;-67
2020/12/27 09:35:04;;;;;;;2.87;1.67;;;;;;;1.80;77.17;98598.63;5049365;28;20039;-67
2020/12/27 09:37:33;;;;;;;2.80;1.57;;;;;;;1.76;77.75;98590.25;5050337;28;20025;-67
2020/12/27 09:40:00;;;;;;;3.22;2.08;;;;;;;1.71;78.29;98582.03;5048939;28;20049;-67
2020/12/27 09:42:32;;;;;;;4.25;1.90;;;;;;;1.67;78.55;98581.50;5049600;28;20071;-67
2020/12/27 09:44:58;;;;;;;4.80;2.55;;;;;;;1.56;79.66;98579.16;5036284;28;20056;-67
2020/12/27 09:47:28;;;;;;;4.63;2.83;;;;;;;1.44;80.22;98556.75;5052947;28;20123;-67
2020/12/27 09:50:00;;;;;;;4.07;3.03;;;;;;;1.31;81.33;98544.03;5053856;28;20068;-67
2020/12/27 09:52:26;;;;;;;5.43;3.00;;;;;;;1.26;81.23;98541.88;5036388;28;20446;-66
2020/12/27 09:54:51;;;;;;;2.58;1.95;;;;;;;1.25;81.41;98548.13;5053171;28;20094;-67
2020/12/27 09:57:19;;;;;;;3.77;1.83;;;;;;;1.25;81.27;98561.25;5053395;28;20037;-66
2020/12/27 09:59:49;;;;;;;3.10;1.83;;;;;;;1.25;80.96;98523.63;5053940;28;20041;-66
2020/12/27 10:02:16;;;;;;;4.70;1.92;;;;;;;1.31;80.49;98524.78;5053439;28;20455;-66
2020/12/27 10:04:42;;;;;;;3.60;1.88;;;;;;;1.34;80.64;98504.28;5053645;28;20033;-67
2020/12/27 10:07:07;;;;;;;4.22;2.08;;;;;;;1.33;80.53;98491.28;5052413;28;20048;-67
2020/12/27 10:09:33;;;;;;;3.45;1.85;;;;;;;1.36;80.01;98498.84;5052779;28;20417;-66
2020/12/27 10:11:58;;;;;;;3.08;2.05;;;;;;;1.43;80.08;98484.94;5052537;28;20079;-66
2020/12/27 10:14:24;;;;;;;6.97;1.65;;;;;;;1.38;80.60;98500.38;5053537;28;20036;-66
2020/12/27 10:16:49;;;;;;;4.87;1.50;;;;;;;1.41;80.67;98483.44;5035422;28;20048;-66
2020/12/27 10:19:15;;;;;;;4.83;1.83;;;;;;;1.46;79.63;98481.16;5052525;28;20041;-67
2020/12/27 10:21:45;;;;;;;6.50;3.00;;;;;;;1.51;79.79;98460.47;5053698;28;20279;-67
2020/12/27 10:24:10;;;;;;;3.40;1.85;;;;;;;1.49;80.39;98470.31;5052449;28;20040;-67
2020/12/27 10:26:36;;;;;;;3.20;1.40;;;;;;;1.57;79.12;98477.38;5052086;28;20035;-67
2020/12/27 10:29:01;;;;;;;6.20;1.70;;;;;;;1.57;79.96;98488.75;5052653;28;20044;-67
2020/12/27 10:31:26;;;;;;;4.50;1.83;;;;;;;1.59;79.60;98457.88;5052281;28;20115;-68
2020/12/27 10:33:52;;;;;;;1.60;1.27;;;;;;;1.72;78.64;98456.56;5052108;28;20128;-67
2020/12/27 10:36:17;;;;;;;3.28;1.92;;;;;;;1.72;78.82;98438.16;5035425;28;20025;-67
2020/12/27 10:38:43;;;;;;;6.57;2.07;;;;;;;1.71;79.12;98445.22;5052185;28;20110;-67
2020/12/27 10:41:08;;;;;;;5.37;1.60;;;;;;;1.74;79.03;98447.53;5052224;28;20377;-67
2020/12/27 10:43:33;;;;;;;2.80;1.60;;;;;;;1.76;78.54;98423.69;5052006;28;20456;-67
2020/12/27 10:46:03;;;;;;;2.03;1.83;;;;;;;1.80;78.63;98419.72;5052672;28;20438;-67
2020/12/27 10:48:30;;;;;;;4.78;1.50;;;;;;;1.82;78.68;98410.69;5052879;28;20028;-68
2020/12/27 10:50:56;;;;;;;3.55;1.70;;;;;;;1.83;78.65;98401.00;5051954;28;20040;-67
2020/12/27 10:53:21;;;;;;;2.25;1.42;;;;;;;1.81;78.94;98401.16;5052863;28;20045;-68
2020/12/27 10:55:47;;;;;;;1.70;1.50;;;;;;;1.85;78.95;98401.63;5050305;28;20450;-67
2020/12/27 10:58:12;;;;;;;3.75;1.30;;;;;;;1.85;78.62;98401.63;5035287;28;20086;-68
2020/12/27 11:00:38;;;;;;;2.63;1.20;;;;;;;1.90;78.18;98404.63;5051624;28;20048;-68
2020/12/27 11:03:03;;;;;;;1.20;1.07;;;;;;;1.90;78.49;98413.34;5052620;28;20071;-68
2020/12/27 11:05:28;;;;;;;1.43;1.20;;;;;;;1.93;78.43;98395.56;5052514;28;20032;-67
2020/12/27 11:07:54;;;;;;;4.33;1.57;;;;;;;1.93;78.23;98385.88;5051627;28;20045;-67
2020/12/27 11:10:19;;;;;;;1.97;1.00;;;;;;;1.96;78.40;98393.41;5034791;28;20052;-67
2020/12/27 11:12:44;;;;;;;2.90;1.40;;;;;;;2.01;77.83;98385.03;5051682;28;20047;-67
2020/12/27 11:15:10;;;;;;;1.23;1.03;;;;;;;2.01;77.91;98375.31;5052074;28;20039;-67
2020/12/27 11:17:35;;;;;;;1.93;1.43;;;;;;;2.01;78.23;98371.88;5051234;28;20040;-66
2020/12/27 11:20:01;;;;;;;1.63;1.10;;;;;;;2.00;77.93;98370.25;5051297;28;20036;-67
2020/12/27 11:22:26;;;;;;;1.30;1.03;;;;;;;2.11;77.28;98357.56;5034846;28;20362;-67
2020/12/27 11:24:51;;;;;;;1.93;1.30;;;;;;;2.08;77.32;98352.63;5034931;28;20037;-67
2020/12/27 11:27:17;;;;;;;3.37;2.10;;;;;;;2.13;77.19;98349.50;5051851;28;20044;-67
2020/12/27 11:29:42;;;;;;;2.57;1.27;;;;;;;2.11;77.64;98347.03;5051178;28;20033;-67
2020/12/27 11:32:07;;;;;;;3.13;1.30;;;;;;;2.17;76.70;98356.06;5052087;28;20530;-66
2020/12/27 11:34:33;;;;;;;1.57;1.17;;;;;;;2.22;76.66;98342.41;5051117;28;20116;-67
2020/12/27 11:36:58;;;;;;;2.57;1.47;;;;;;;2.24;76.50;98319.34;5050785;28;20355;-66
2020/12/27 11:39:23;;;;;;;4.57;1.73;;;;;;;2.23;76.48;98312.47;5052129;28;20527;-66
2020/12/27 11:41:49;;;;;;;2.87;2.67;;;;;;;2.27;76.21;98311.97;5050955;28;20067;-66
2020/12/27 11:44:14;;;;;;;1.53;1.40;;;;;;;2.31;76.03;98305.34;5034341;28;20036;-66
2020/12/27 11:46:40;;;;;;;1.88;1.30;;;;;;;2.32;75.67;98288.56;5050569;28;20412;-66
2020/12/27 11:49:07;;;;;;;2.17;1.10;;;;;;;2.36;76.02;98291.66;5034311;28;20090;-66
2020/12/27 11:51:33;;;;;;;2.00;1.27;;;;;;;2.43;75.48;98276.81;5051784;28;20087;-66
2020/12/27 11:53:58;;;;;;;1.67;1.05;;;;;;;2.48;74.96;98271.88;5051709;28;20495;-66
2020/12/27 11:56:23;;;;;;;2.57;1.70;;;;;;;2.49;74.99;98265.63;5050525;28;20036;-66
2020/12/27 11:58:49;;;;;;;3.23;2.53;;;;;;;2.57;74.52;98266.56;5050565;28;20044;-66
2020/12/27 12:01:14;;;;;;;1.27;1.00;;;;;;;2.63;74.24;98271.97;5051574;28;20037;-66